Deventer, Netherlands
Current Conditions -  °F | °C
As of 3:25 PM on Saturday 25 Oct 2014 (Local Time) from EHDL Reporting Station
Haze Haze  
Wind Chill: 57°   Ceiling: 900
Heat Index: 57°   Visibility: 3mi
Dew Point: 55°   Wind: 10mph
Humidity: 94%   Direction: 200°SSW
Pressure: 30.06"   Gusts: NA
Location:  52.26°N, 6.16°E
Report Text: EHDL 251325Z AUTO 20009KT 5000 BR FEW007 SCT008 BKN009 14/13 Q1018 GRN
Loading
Personal Weather Stations






























Interactive Weather Map
Tropical Storm Tracking
New forecast layout! Learn more

10-Day Weather Forecast

Advertisements
Track Severe Weather on mobile